Time;durP1;ratioP1;P1;durP2;ratioP2;P2;SDS_P1;SDS_P2;PMS_P1;PMS_P2;Temp;Humidity;BMP_temperature;BMP_pressure;BME280_temperature;BME280_humidity;BME280_pressure;Samples;Min_cycle;Max_cycle;Signal;HPM_P1;HPM_P2
2022/12/02 00:02:00;;;;;;;54.20;24.13;;;3.20;99.90;;;;;;4991022;28;20052;-72
2022/12/02 00:04:27;;;;;;;51.92;24.50;;;3.80;99.90;;;;;;5007218;28;20054;-71
2022/12/02 00:06:56;;;;;;;54.42;24.42;;;3.20;99.90;;;;;;5021293;28;20403;-71
2022/12/02 00:09:32;;;;;;;50.67;23.92;;;3.20;99.90;;;;;;4998575;28;20045;-71
2022/12/02 00:11:59;;;;;;;51.38;24.63;;;3.10;99.90;;;;;;5012335;28;20053;-71
2022/12/02 00:14:28;;;;;;;52.38;23.88;;;3.10;99.90;;;;;;5009626;28;20461;-70
2022/12/02 00:16:55;;;;;;;50.42;24.33;;;3.10;99.90;;;;;;4989121;28;20061;-70
2022/12/02 00:19:21;;;;;;;50.90;23.65;;;3.10;99.90;;;;;;4998042;28;20132;-70
2022/12/02 00:21:48;;;;;;;50.70;24.65;;;3.10;99.90;;;;;;5006317;28;20041;-70
2022/12/02 00:24:15;;;;;;;50.10;22.60;;;3.70;99.90;;;;;;5005086;28;20722;-70
2022/12/02 00:26:41;;;;;;;51.28;25.05;;;3.10;99.90;;;;;;4996624;28;20049;-73
2022/12/02 00:29:07;;;;;;;52.28;23.13;;;3.50;99.90;;;;;;4997245;28;20821;-72
2022/12/02 00:31:33;;;;;;;48.72;23.75;;;3.00;99.90;;;;;;5011965;28;20049;-71
2022/12/02 00:33:59;;;;;;;57.30;25.48;;;3.00;99.90;;;;;;5020908;28;20417;-72
2022/12/02 00:36:26;;;;;;;57.30;25.30;;;3.00;99.90;;;;;;5024037;28;20050;-72
2022/12/02 00:38:53;;;;;;;54.13;24.52;;;3.00;99.90;;;;;;5022472;28;20046;-71
2022/12/02 00:41:18;;;;;;;50.08;24.38;;;3.00;99.90;;;;;;5026155;28;20044;-71
2022/12/02 00:46:31;;;;;;;55.83;24.83;;;3.00;99.90;;;;;;5033169;28;20049;-71
2022/12/02 00:49:10;;;;;;;52.67;24.50;;;3.00;99.90;;;;;;5031144;28;20052;-71
2022/12/02 00:51:37;;;;;;;54.30;26.00;;;3.00;99.90;;;;;;4990763;28;20045;-71
2022/12/02 00:54:04;;;;;;;54.20;23.98;;;3.20;99.90;;;;;;5006328;28;20049;-71
2022/12/02 00:56:30;;;;;;;55.80;25.60;;;3.00;99.90;;;;;;5015660;28;20110;-71
2022/12/02 00:58:55;;;;;;;52.67;23.67;;;3.00;99.90;;;;;;5015879;28;20040;-71
2022/12/02 01:01:21;;;;;;;57.63;25.45;;;3.00;99.90;;;;;;5025599;28;20551;-71
2022/12/02 01:03:47;;;;;;;57.33;24.83;;;3.00;99.90;;;;;;5043562;28;20130;-71
2022/12/02 01:06:13;;;;;;;55.35;23.85;;;3.00;99.90;;;;;;5036540;28;20053;-71
2022/12/02 01:08:39;;;;;;;57.78;25.15;;;3.00;99.90;;;;;;5045154;28;20083;-71
2022/12/02 01:11:05;;;;;;;54.25;25.05;;;3.00;99.90;;;;;;5032999;28;20033;-71
2022/12/02 01:13:31;;;;;;;55.00;25.45;;;3.00;99.90;;;;;;5037037;28;20079;-71
2022/12/02 01:15:57;;;;;;;53.80;24.40;;;3.00;99.90;;;;;;5023795;28;20036;-71
2022/12/02 01:18:23;;;;;;;58.05;25.30;;;3.00;99.90;;;;;;5028283;28;20053;-71
2022/12/02 01:20:49;;;;;;;50.92;24.35;;;3.00;99.90;;;;;;5041684;28;20090;-70
2022/12/02 01:23:14;;;;;;;55.80;24.73;;;3.00;99.90;;;;;;5021929;28;20102;-73
2022/12/02 01:25:40;;;;;;;56.92;25.75;;;3.00;99.90;;;;;;5010908;28;20041;-74
2022/12/02 01:28:06;;;;;;;50.05;23.92;;;3.00;99.90;;;;;;5007648;28;20053;-74
2022/12/02 01:30:32;;;;;;;54.00;23.73;;;3.00;99.90;;;;;;5013270;28;20045;-74
2022/12/02 01:32:58;;;;;;;47.05;22.40;;;3.00;99.90;;;;;;5033615;28;20045;-74
2022/12/02 01:35:23;;;;;;;45.20;21.27;;;3.00;99.90;;;;;;5030793;28;20804;-74
2022/12/02 01:37:49;;;;;;;48.38;22.17;;;3.20;99.90;;;;;;5043625;28;20057;-74
2022/12/02 01:40:16;;;;;;;49.72;21.02;;;2.90;99.90;;;;;;5012044;28;20041;-74
2022/12/02 01:42:44;;;;;;;45.38;22.10;;;2.90;99.90;;;;;;5031736;28;20661;-75
2022/12/02 01:45:11;;;;;;;43.85;20.90;;;3.00;99.90;;;;;;5040160;28;20079;-74
2022/12/02 01:47:38;;;;;;;43.42;22.02;;;2.90;99.90;;;;;;5032870;28;20523;-74
2022/12/02 01:50:06;;;;;;;44.33;20.83;;;2.90;99.90;;;;;;5028172;28;20028;-75
2022/12/02 01:52:32;;;;;;;45.45;20.88;;;2.90;99.90;;;;;;5030098;28;20040;-73
2022/12/02 01:54:57;;;;;;;44.28;19.60;;;2.90;99.90;;;;;;5024560;28;20044;-74
2022/12/02 01:57:28;;;;;;;43.45;19.30;;;2.90;99.90;;;;;;5026030;28;20106;-74
2022/12/02 01:59:55;;;;;;;45.20;19.02;;;2.90;99.90;;;;;;5028387;28;20076;-74
2022/12/02 02:02:29;;;;;;;48.83;21.20;;;2.90;99.90;;;;;;5009708;28;20497;-74
2022/12/02 02:05:01;;;;;;;44.97;19.38;;;2.90;99.90;;;;;;5040316;28;20048;-75
2022/12/02 02:07:31;;;;;;;43.38;18.88;;;2.90;99.90;;;;;;5025476;28;20037;-76
2022/12/02 02:09:57;;;;;;;47.72;20.15;;;2.90;99.90;;;;;;5026065;28;20129;-75
2022/12/02 02:12:23;;;;;;;47.30;19.08;;;2.80;99.90;;;;;;5041579;28;20037;-75
2022/12/02 02:14:49;;;;;;;48.20;19.40;;;2.80;99.90;;;;;;5028075;28;20052;-74
2022/12/02 02:17:16;;;;;;;48.83;19.33;;;2.80;99.90;;;;;;5039070;28;20123;-74
2022/12/02 02:19:43;;;;;;;46.83;19.90;;;2.90;99.90;;;;;;5029572;28;20681;-74
2022/12/02 02:22:17;;;;;;;49.53;20.38;;;2.80;99.90;;;;;;5029644;28;20123;-74
2022/12/02 02:24:43;;;;;;;51.70;20.98;;;2.80;99.90;;;;;;5045237;28;20480;-74
2022/12/02 02:27:08;;;;;;;45.92;21.17;;;2.80;99.90;;;;;;5044581;28;20040;-74
2022/12/02 02:29:34;;;;;;;52.67;22.58;;;2.80;99.90;;;;;;5030493;28;20068;-74
2022/12/02 02:32:00;;;;;;;48.90;21.33;;;2.80;99.90;;;;;;5034417;28;20029;-74
2022/12/02 02:34:26;;;;;;;52.00;21.85;;;2.80;99.90;;;;;;5036100;28;20412;-74
2022/12/02 02:36:52;;;;;;;51.10;21.05;;;2.80;99.90;;;;;;5033336;28;20056;-75
2022/12/02 02:39:18;;;;;;;48.35;21.02;;;2.80;99.90;;;;;;5032341;28;20498;-72
2022/12/02 02:41:45;;;;;;;48.88;21.55;;;2.80;99.90;;;;;;5031397;28;20124;-72
2022/12/02 02:44:10;;;;;;;52.20;23.15;;;3.30;99.90;;;;;;5033431;28;20553;-70
2022/12/02 02:46:36;;;;;;;50.67;22.98;;;2.80;99.90;;;;;;5037085;28;20084;-71
2022/12/02 02:49:02;;;;;;;58.47;22.63;;;3.40;99.90;;;;;;5011298;28;20088;-71
2022/12/02 02:51:28;;;;;;;54.95;24.17;;;2.80;99.90;;;;;;5046791;28;20040;-71
2022/12/02 02:53:53;;;;;;;61.15;23.90;;;2.80;99.90;;;;;;5047853;28;20069;-70
2022/12/02 02:56:19;;;;;;;56.33;23.88;;;2.80;99.90;;;;;;5030389;28;20041;-71
2022/12/02 02:58:45;;;;;;;56.50;22.65;;;2.70;99.90;;;;;;5021010;28;20098;-71
2022/12/02 03:01:18;;;;;;;57.20;23.02;;;2.70;99.90;;;;;;5031974;28;20044;-72
2022/12/02 03:03:51;;;;;;;56.88;22.73;;;2.80;99.90;;;;;;5013233;28;20057;-71
2022/12/02 03:06:17;;;;;;;55.85;22.40;;;2.70;99.90;;;;;;5044236;28;20053;-71
2022/12/02 03:08:46;;;;;;;55.55;22.70;;;2.80;99.90;;;;;;5029105;28;20118;-71
2022/12/02 03:11:12;;;;;;;53.80;23.65;;;2.70;99.90;;;;;;5010794;28;20098;-72
2022/12/02 03:13:39;;;;;;;58.83;23.27;;;2.80;99.90;;;;;;5018465;28;20057;-71
2022/12/02 03:16:08;;;;;;;53.70;23.60;;;2.80;99.90;;;;;;5035716;28;20049;-72
2022/12/02 03:18:38;;;;;;;58.15;23.88;;;2.70;99.90;;;;;;5031337;28;20047;-72
2022/12/02 03:21:05;;;;;;;63.45;23.90;;;2.70;99.90;;;;;;5028933;28;20076;-72
2022/12/02 03:23:32;;;;;;;57.58;23.88;;;2.70;99.90;;;;;;5030173;28;20055;-72
2022/12/02 03:25:58;;;;;;;60.53;23.90;;;2.70;99.90;;;;;;5035627;28;20128;-71
2022/12/02 03:28:24;;;;;;;58.00;23.77;;;2.80;99.90;;;;;;5032878;28;20092;-72
2022/12/02 03:30:51;;;;;;;52.88;22.25;;;2.70;99.90;;;;;;5029631;28;20640;-72
2022/12/02 03:33:17;;;;;;;59.47;23.67;;;2.70;99.90;;;;;;5008722;28;20510;-72
2022/12/02 03:35:42;;;;;;;52.72;23.05;;;2.70;99.90;;;;;;5029870;28;20048;-72
2022/12/02 03:38:08;;;;;;;48.58;22.33;;;2.80;99.90;;;;;;5047170;28;20095;-72
2022/12/02 03:40:34;;;;;;;49.20;22.23;;;2.70;99.90;;;;;;5032803;28;20426;-72
2022/12/02 03:43:00;;;;;;;50.03;21.92;;;2.70;99.90;;;;;;5024850;28;20049;-72
2022/12/02 03:45:26;;;;;;;48.08;19.85;;;2.70;99.90;;;;;;5029703;28;20043;-72
2022/12/02 03:47:52;;;;;;;51.50;22.02;;;2.80;99.90;;;;;;5019076;28;20450;-72
2022/12/02 03:50:18;;;;;;;52.13;20.08;;;2.70;99.90;;;;;;5028929;28;20512;-71
2022/12/02 03:52:44;;;;;;;49.13;21.77;;;2.70;99.90;;;;;;5011823;28;20073;-72
2022/12/02 03:55:10;;;;;;;43.35;18.52;;;2.70;99.90;;;;;;5010918;28;20142;-72
2022/12/02 03:57:36;;;;;;;45.53;20.33;;;2.60;99.90;;;;;;5044129;28;20108;-71
2022/12/02 04:00:04;;;;;;;50.25;21.50;;;2.60;99.90;;;;;;5047165;28;20493;-72
2022/12/02 04:02:29;;;;;;;47.65;21.17;;;2.60;99.90;;;;;;5041339;28;20049;-71
2022/12/02 04:04:55;;;;;;;44.47;20.27;;;2.60;99.90;;;;;;5031116;28;20045;-71
2022/12/02 04:07:21;;;;;;;45.88;20.65;;;2.60;99.90;;;;;;5045447;28;20071;-71
2022/12/02 04:09:47;;;;;;;49.50;21.30;;;2.60;99.90;;;;;;5046739;28;20045;-71
2022/12/02 04:12:12;;;;;;;49.17;21.67;;;2.60;99.90;;;;;;5027110;28;20132;-71
2022/12/02 04:14:38;;;;;;;47.17;19.73;;;2.50;99.90;;;;;;5045414;28;20655;-72
2022/12/02 04:17:04;;;;;;;51.22;20.73;;;2.50;99.90;;;;;;5045509;28;20444;-72
2022/12/02 04:19:29;;;;;;;52.90;20.95;;;2.70;99.90;;;;;;5044570;28;20044;-72
2022/12/02 04:21:55;;;;;;;53.58;21.60;;;2.50;99.90;;;;;;5028482;28;20037;-72
2022/12/02 04:24:21;;;;;;;48.08;20.75;;;2.50;99.90;;;;;;5025509;28;20045;-72
2022/12/02 04:26:46;;;;;;;49.30;21.52;;;2.50;99.90;;;;;;5023624;28;20045;-72
2022/12/02 04:29:12;;;;;;;51.13;20.73;;;2.50;99.90;;;;;;5025368;28;20045;-71
2022/12/02 04:31:38;;;;;;;49.15;20.67;;;2.50;99.90;;;;;;5027896;28;20106;-72
2022/12/02 04:34:03;;;;;;;53.38;21.88;;;2.50;99.90;;;;;;5012122;28;20048;-72
2022/12/02 04:36:29;;;;;;;50.78;22.25;;;2.50;99.90;;;;;;5050935;28;20037;-72
2022/12/02 04:38:55;;;;;;;55.47;22.40;;;2.60;99.90;;;;;;5025344;28;20037;-71
2022/12/02 04:41:20;;;;;;;52.25;21.85;;;2.50;99.90;;;;;;5029588;28;20349;-71
2022/12/02 04:43:46;;;;;;;50.20;22.48;;;2.50;99.90;;;;;;5046121;28;20547;-71
2022/12/02 04:46:12;;;;;;;57.47;22.30;;;2.60;99.90;;;;;;5034969;28;20132;-71
2022/12/02 04:48:37;;;;;;;56.85;21.58;;;2.50;99.90;;;;;;5025263;28;20598;-71
2022/12/02 04:51:03;;;;;;;57.85;21.33;;;2.70;99.90;;;;;;5021962;28;20038;-71
2022/12/02 04:53:29;;;;;;;56.45;21.83;;;2.50;99.90;;;;;;5043866;28;20072;-71
2022/12/02 04:55:54;;;;;;;55.25;22.10;;;2.50;99.90;;;;;;5027845;28;20099;-71
2022/12/02 04:58:20;;;;;;;55.22;21.77;;;2.50;99.90;;;;;;5045431;28;20044;-71
2022/12/02 05:00:46;;;;;;;53.05;22.35;;;2.50;99.90;;;;;;5025024;28;20081;-70
2022/12/02 05:03:11;;;;;;;63.25;24.65;;;2.70;99.90;;;;;;5042091;28;20107;-70
2022/12/02 05:05:37;;;;;;;61.33;23.73;;;2.50;99.90;;;;;;5042929;28;20080;-71
2022/12/02 05:08:04;;;;;;;58.95;22.73;;;2.50;99.90;;;;;;5027141;28;20041;-70
2022/12/02 05:10:30;;;;;;;68.07;26.02;;;2.40;99.90;;;;;;5010133;28;20041;-71
2022/12/02 05:12:55;;;;;;;59.55;22.27;;;2.50;99.90;;;;;;5027396;28;20653;-71
2022/12/02 05:15:21;;;;;;;58.92;22.30;;;2.50;99.90;;;;;;5028536;28;20033;-71
2022/12/02 05:17:46;;;;;;;59.90;23.63;;;2.50;99.90;;;;;;5012558;28;20056;-71
2022/12/02 05:20:12;;;;;;;63.53;23.02;;;2.50;99.90;;;;;;5031205;28;20043;-70
2022/12/02 05:22:39;;;;;;;54.10;21.52;;;2.40;99.90;;;;;;5009877;28;20032;-70
2022/12/02 05:25:05;;;;;;;55.28;23.20;;;3.30;99.90;;;;;;5024905;28;20457;-71
2022/12/02 05:27:31;;;;;;;58.83;22.30;;;2.40;99.90;;;;;;5037791;28;20233;-71
2022/12/02 05:29:57;;;;;;;59.25;22.38;;;2.50;99.90;;;;;;5045518;28;20087;-71
2022/12/02 05:32:22;;;;;;;56.65;21.50;;;2.50;99.90;;;;;;5044372;28;20490;-72
2022/12/02 05:34:48;;;;;;;61.58;23.02;;;2.50;99.90;;;;;;5023480;28;20047;-71
2022/12/02 05:37:13;;;;;;;61.90;22.60;;;2.60;99.90;;;;;;5041473;28;20406;-71
2022/12/02 05:39:39;;;;;;;58.90;24.25;;;2.50;99.90;;;;;;5011997;28;20045;-71
2022/12/02 05:42:07;;;;;;;61.03;22.67;;;2.50;99.90;;;;;;5026068;28;20076;-72
2022/12/02 05:44:33;;;;;;;55.92;22.88;;;2.50;99.90;;;;;;5043705;28;20049;-71
2022/12/02 05:47:09;;;;;;;58.28;22.65;;;2.50;99.90;;;;;;5010643;28;20203;-75
2022/12/02 05:49:35;;;;;;;57.40;22.35;;;2.50;99.90;;;;;;5000489;28;20040;-74
2022/12/02 05:52:06;;;;;;;61.17;24.33;;;2.50;99.90;;;;;;5025137;28;20609;-74
2022/12/02 05:54:31;;;;;;;65.22;22.88;;;2.50;99.90;;;;;;5013469;28;20095;-73
2022/12/02 05:57:02;;;;;;;59.78;23.88;;;2.50;99.90;;;;;;5029983;28;20041;-73
2022/12/02 05:59:29;;;;;;;52.35;22.40;;;2.40;99.90;;;;;;5005080;28;20046;-73
2022/12/02 06:01:56;;;;;;;62.03;23.70;;;3.00;99.90;;;;;;5026524;28;20476;-73
2022/12/02 06:04:30;;;;;;;54.63;22.27;;;2.40;99.90;;;;;;5037688;28;20037;-71
2022/12/02 06:07:07;;;;;;;58.10;22.80;;;2.50;99.90;;;;;;5038052;28;20083;-71
2022/12/02 06:09:33;;;;;;;60.47;23.48;;;2.50;99.90;;;;;;5031483;28;20045;-70
2022/12/02 06:12:00;;;;;;;58.72;24.65;;;2.50;99.90;;;;;;5030288;28;20186;-70
2022/12/02 06:14:34;;;;;;;61.72;23.55;;;2.40;99.90;;;;;;4995827;28;20148;-71
2022/12/02 06:17:08;;;;;;;62.60;23.83;;;2.40;99.90;;;;;;5014547;28;20048;-70
2022/12/02 06:19:41;;;;;;;63.10;22.65;;;2.50;99.90;;;;;;5027449;28;20045;-70
2022/12/02 06:22:24;;;;;;;61.15;23.83;;;2.40;99.90;;;;;;5019084;28;20053;-70
2022/12/02 06:24:52;;;;;;;60.05;22.88;;;2.40;99.90;;;;;;5019638;28;20505;-71
2022/12/02 06:27:18;;;;;;;66.82;23.45;;;2.40;99.90;;;;;;5011592;28;20061;-71
2022/12/02 06:29:51;;;;;;;60.97;21.63;;;2.40;99.90;;;;;;5025327;28;20042;-70
2022/12/02 06:32:21;;;;;;;61.55;23.92;;;2.50;99.90;;;;;;5015065;28;20045;-70
2022/12/02 06:34:51;;;;;;;59.15;21.88;;;2.40;99.90;;;;;;5016606;28;20040;-70
2022/12/02 06:37:23;;;;;;;70.05;24.63;;;2.40;99.90;;;;;;5011486;28;20053;-70
2022/12/02 06:39:54;;;;;;;61.83;22.95;;;2.50;99.90;;;;;;5008220;28;20132;-70
2022/12/02 06:42:34;;;;;;;59.80;22.17;;;2.40;99.90;;;;;;5027507;28;20051;-71
2022/12/02 06:45:22;;;;;;;63.80;23.77;;;2.50;99.90;;;;;;5029030;28;20052;-71
2022/12/02 06:47:57;;;;;;;58.92;22.98;;;2.50;99.90;;;;;;5031996;28;20057;-71
2022/12/02 06:50:31;;;;;;;68.70;23.95;;;2.40;99.90;;;;;;5012871;28;20135;-72
2022/12/02 06:53:47;;;;;;;64.57;24.35;;;2.40;99.90;;;;;;5012342;28;20797;-70
2022/12/02 06:56:22;;;;;;;64.45;24.00;;;2.40;99.90;;;;;;4993642;28;20117;-70
2022/12/02 06:59:03;;;;;;;66.70;24.60;;;2.50;99.90;;;;;;5013159;28;20053;-70
2022/12/02 07:01:37;;;;;;;62.60;23.40;;;2.60;99.90;;;;;;5018462;28;21601;-70
2022/12/02 07:04:09;;;;;;;64.22;24.63;;;2.50;99.90;;;;;;4999302;28;20120;-71
2022/12/02 07:06:38;;;;;;;65.30;24.88;;;2.50;99.90;;;;;;4997350;28;20049;-70
2022/12/02 07:09:27;;;;;;;66.65;24.10;;;2.40;99.90;;;;;;5021614;28;20083;-71
2022/12/02 07:11:54;;;;;;;62.38;24.58;;;2.40;99.90;;;;;;5032714;28;20041;-71
2022/12/02 07:14:42;;;;;;;65.38;24.88;;;2.50;99.90;;;;;;5028518;28;20146;-71
2022/12/02 07:17:28;;;;;;;67.93;25.25;;;2.50;99.90;;;;;;5019924;28;20054;-71
2022/12/02 07:20:22;;;;;;;70.15;24.45;;;2.40;99.90;;;;;;5019936;28;20080;-71
2022/12/02 07:23:04;;;;;;;62.25;24.15;;;2.60;99.90;;;;;;5001703;28;20056;-70
2022/12/02 07:26:03;;;;;;;64.57;23.30;;;2.40;99.90;;;;;;5021371;28;20049;-71
2022/12/02 07:28:43;;;;;;;63.88;24.38;;;2.50;99.90;;;;;;4951636;28;20063;-71
2022/12/02 07:31:17;;;;;;;70.20;24.38;;;2.40;99.90;;;;;;5010900;28;20049;-70
2022/12/02 07:33:43;;;;;;;63.50;22.92;;;2.40;99.90;;;;;;5003124;28;20233;-71
2022/12/02 07:36:08;;;;;;;64.15;24.85;;;2.40;99.90;;;;;;5034574;28;20518;-70
2022/12/02 07:38:34;;;;;;;70.68;26.65;;;2.50;99.90;;;;;;5012660;28;20059;-73
2022/12/02 07:41:00;;;;;;;70.40;25.73;;;2.40;99.90;;;;;;5036799;28;20046;-74
2022/12/02 07:43:25;;;;;;;75.32;25.73;;;2.50;99.90;;;;;;5020540;28;20052;-73
2022/12/02 07:45:51;;;;;;;75.95;26.98;;;2.50;99.90;;;;;;5016895;28;20521;-74
2022/12/02 07:48:17;;;;;;;74.82;25.20;;;2.50;99.90;;;;;;5017253;28;20052;-74
2022/12/02 07:50:43;;;;;;;67.78;25.35;;;2.60;99.90;;;;;;5034810;28;20047;-74
2022/12/02 07:53:08;;;;;;;69.20;26.80;;;2.60;99.90;;;;;;5036101;28;20564;-73
2022/12/02 07:55:34;;;;;;;71.43;25.23;;;2.60;99.90;;;;;;5034906;28;20132;-74
2022/12/02 07:58:00;;;;;;;67.65;26.50;;;2.60;99.90;;;;;;5018260;28;20045;-75
2022/12/02 08:00:25;;;;;;;67.40;25.90;;;2.70;99.90;;;;;;5017156;28;20460;-75
2022/12/02 08:02:54;;;;;;;62.00;24.52;;;2.70;99.90;;;;;;5019823;28;20053;-73
2022/12/02 08:05:20;;;;;;;66.35;24.65;;;2.70;99.90;;;;;;5025584;28;20072;-74
2022/12/02 08:07:45;;;;;;;61.17;24.20;;;2.70;99.90;;;;;;5024197;28;20467;-73
2022/12/02 08:10:12;;;;;;;63.83;24.23;;;2.70;99.90;;;;;;5039014;28;20044;-74
2022/12/02 08:12:38;;;;;;;67.70;25.35;;;2.70;99.90;;;;;;5019785;28;20045;-74
2022/12/02 08:15:08;;;;;;;67.30;25.75;;;2.80;99.90;;;;;;5031411;28;20045;-73
2022/12/02 08:17:35;;;;;;;64.93;26.17;;;2.70;99.90;;;;;;5019673;28;20056;-73
2022/12/02 08:20:01;;;;;;;66.05;27.05;;;2.70;99.90;;;;;;5035033;28;20294;-74
2022/12/02 08:22:27;;;;;;;70.38;25.40;;;2.80;99.90;;;;;;5014971;28;20054;-74
2022/12/02 08:24:54;;;;;;;70.63;26.83;;;2.70;99.90;;;;;;5022077;28;20457;-74
2022/12/02 08:27:21;;;;;;;65.13;26.30;;;2.70;99.90;;;;;;5017533;28;20044;-74
2022/12/02 08:29:48;;;;;;;63.55;25.45;;;2.70;99.90;;;;;;5037176;28;20051;-73
2022/12/02 08:32:16;;;;;;;64.10;26.08;;;2.60;99.90;;;;;;5021755;28;20056;-73
2022/12/02 08:34:41;;;;;;;59.92;25.23;;;2.60;99.90;;;;;;5026053;28;20128;-74
2022/12/02 08:37:08;;;;;;;62.65;24.25;;;2.60;99.90;;;;;;5007242;28;20144;-74
2022/12/02 08:39:34;;;;;;;61.65;24.02;;;2.50;99.90;;;;;;5018762;28;20539;-74
2022/12/02 08:42:00;;;;;;;58.30;23.45;;;2.50;99.90;;;;;;5024139;28;20645;-73
2022/12/02 08:44:26;;;;;;;58.63;21.70;;;2.40;99.90;;;;;;5021184;28;20076;-74
2022/12/02 08:46:52;;;;;;;52.65;21.13;;;2.40;99.90;;;;;;5020852;28;20418;-74
2022/12/02 08:49:18;;;;;;;54.53;21.40;;;2.40;99.90;;;;;;5020480;28;20106;-74
2022/12/02 08:51:43;;;;;;;50.22;20.63;;;2.30;99.90;;;;;;5007705;28;20051;-73
2022/12/02 08:54:09;;;;;;;54.80;21.10;;;2.30;99.90;;;;;;5019363;28;20036;-74
2022/12/02 08:56:35;;;;;;;54.53;21.40;;;2.20;99.90;;;;;;5023243;28;20037;-73
2022/12/02 08:59:01;;;;;;;67.03;23.73;;;2.20;99.90;;;;;;5004167;28;20603;-73
2022/12/02 09:01:27;;;;;;;62.85;22.25;;;2.20;99.90;;;;;;5022719;28;20092;-74
2022/12/02 09:03:53;;;;;;;69.55;22.92;;;2.20;99.90;;;;;;5023375;28;20067;-73
2022/12/02 09:06:19;;;;;;;62.95;22.58;;;2.10;99.90;;;;;;5015516;28;20042;-73
2022/12/02 09:08:45;;;;;;;57.17;22.35;;;2.10;99.90;;;;;;5023743;28;20045;-73
2022/12/02 09:11:10;;;;;;;57.55;22.30;;;2.10;99.90;;;;;;5026437;28;20114;-72
2022/12/02 09:13:36;;;;;;;57.40;21.50;;;2.10;99.90;;;;;;5033686;28;20175;-73
2022/12/02 09:16:02;;;;;;;60.38;22.45;;;2.10;99.90;;;;;;5019318;28;20037;-73
2022/12/02 09:18:28;;;;;;;60.53;22.98;;;2.00;99.90;;;;;;5019789;28;20065;-73
2022/12/02 09:20:53;;;;;;;56.45;22.60;;;2.00;99.90;;;;;;5014664;28;22771;-74
2022/12/02 09:23:19;;;;;;;62.28;22.70;;;2.00;99.90;;;;;;5030737;28;20042;-73
2022/12/02 09:25:45;;;;;;;57.53;22.13;;;2.00;99.90;;;;;;5018553;28;20052;-74
2022/12/02 09:28:10;;;;;;;59.70;22.95;;;2.10;99.90;;;;;;5003653;28;20157;-73
2022/12/02 09:30:36;;;;;;;56.53;22.42;;;2.20;99.90;;;;;;5006006;28;20573;-73
2022/12/02 09:33:02;;;;;;;58.22;22.38;;;2.00;99.90;;;;;;5021685;28;20061;-73
2022/12/02 09:35:31;;;;;;;58.17;21.63;;;2.70;99.90;;;;;;5018011;28;20045;-74
2022/12/02 09:37:56;;;;;;;54.67;22.38;;;2.00;99.90;;;;;;5022587;28;20047;-72
2022/12/02 09:40:22;;;;;;;58.70;21.23;;;2.00;99.90;;;;;;5023364;28;20049;-73
2022/12/02 09:42:49;;;;;;;56.25;20.08;;;2.00;99.90;;;;;;5037001;28;20072;-74
2022/12/02 09:45:15;;;;;;;61.13;20.95;;;2.10;99.90;;;;;;5001708;28;20056;-73
2022/12/02 09:47:42;;;;;;;57.55;20.90;;;2.00;99.90;;;;;;5035772;28;20045;-74
2022/12/02 09:50:12;;;;;;;63.20;23.23;;;2.10;99.90;;;;;;5007097;28;20067;-73
2022/12/02 09:52:38;;;;;;;63.83;23.50;;;2.00;99.90;;;;;;5020804;28;20057;-74
2022/12/02 09:55:14;;;;;;;63.33;22.10;;;2.00;99.90;;;;;;5022013;28;20584;-74
2022/12/02 09:57:40;;;;;;;64.32;22.30;;;2.00;99.90;;;;;;5002968;28;20056;-74
2022/12/02 10:00:15;;;;;;;60.08;22.90;;;2.30;99.90;;;;;;5004891;28;20770;-74
2022/12/02 10:02:49;;;;;;;63.85;22.60;;;2.00;99.90;;;;;;5031539;28;20040;-74
2022/12/02 10:05:19;;;;;;;63.75;21.95;;;2.00;99.90;;;;;;5033465;28;20045;-74
2022/12/02 10:07:47;;;;;;;64.60;22.25;;;2.00;99.90;;;;;;5020896;28;20550;-74
2022/12/02 10:10:18;;;;;;;66.70;23.00;;;2.00;99.90;;;;;;5015502;28;20045;-74
2022/12/02 10:12:44;;;;;;;60.42;21.60;;;2.00;99.90;;;;;;5037326;28;20045;-76
2022/12/02 10:15:12;;;;;;;59.75;21.85;;;2.00;99.90;;;;;;5008464;28;20033;-75
2022/12/02 10:17:38;;;;;;;59.72;21.35;;;2.40;99.90;;;;;;5019114;28;20505;-75
2022/12/02 10:20:04;;;;;;;61.25;21.73;;;2.10;99.90;;;;;;5029753;28;20034;-75
2022/12/02 10:22:30;;;;;;;58.60;21.30;;;2.10;99.90;;;;;;5016157;28;20049;-74
2022/12/02 10:24:57;;;;;;;56.42;21.60;;;2.10;99.90;;;;;;5028100;28;20091;-74
2022/12/02 10:27:26;;;;;;;51.28;20.10;;;2.20;99.90;;;;;;5016620;28;20057;-75
2022/12/02 10:29:52;;;;;;;58.80;20.50;;;2.20;99.90;;;;;;4993898;28;20079;-75
2022/12/02 10:32:25;;;;;;;48.20;21.30;;;2.20;99.90;;;;;;5011718;28;20061;-74
2022/12/02 10:35:04;;;;;;;55.03;20.65;;;2.20;99.90;;;;;;5011515;28;20502;-75
2022/12/02 10:37:32;;;;;;;46.30;18.67;;;2.50;99.90;;;;;;5007340;28;20609;-73
2022/12/02 10:40:16;;;;;;;48.88;19.42;;;2.50;99.90;;;;;;5007273;28;20049;-73
2022/12/02 10:42:43;;;;;;;50.78;20.48;;;2.20;99.90;;;;;;5026319;28;20465;-72
2022/12/02 10:45:14;;;;;;;50.97;20.10;;;2.20;99.90;;;;;;5007665;28;20136;-74
2022/12/02 10:47:40;;;;;;;54.17;22.92;;;2.20;99.90;;;;;;5010316;28;20449;-73
2022/12/02 10:50:19;;;;;;;53.10;21.13;;;2.20;99.90;;;;;;5026855;28;20045;-74
2022/12/02 10:52:56;;;;;;;53.75;21.10;;;2.20;99.90;;;;;;5017679;28;20059;-74
2022/12/02 10:55:22;;;;;;;53.78;21.73;;;2.20;99.90;;;;;;5012911;28;20076;-73
2022/12/02 10:57:49;;;;;;;48.50;20.77;;;2.10;99.90;;;;;;5009311;28;20532;-73
2022/12/02 11:00:15;;;;;;;50.35;20.52;;;2.20;99.90;;;;;;4995177;28;20921;-73
2022/12/02 11:02:47;;;;;;;52.10;22.38;;;2.20;99.90;;;;;;5001531;28;20049;-74
2022/12/02 11:05:21;;;;;;;55.25;22.13;;;2.20;99.90;;;;;;4999909;28;20095;-73
2022/12/02 11:07:59;;;;;;;49.60;20.75;;;2.20;99.90;;;;;;5020766;28;20635;-73
2022/12/02 11:10:46;;;;;;;53.38;22.42;;;2.20;99.90;;;;;;5019475;28;20056;-73
2022/12/02 11:13:12;;;;;;;53.60;21.50;;;2.20;99.90;;;;;;4998819;28;20576;-73
2022/12/02 11:15:40;;;;;;;52.08;22.90;;;2.90;99.90;;;;;;5031164;28;20092;-73
2022/12/02 11:18:07;;;;;;;53.75;23.15;;;2.30;99.90;;;;;;5011904;28;20053;-74
2022/12/02 11:20:40;;;;;;;55.63;23.80;;;2.20;99.90;;;;;;5017992;28;20041;-74
2022/12/02 11:23:24;;;;;;;52.75;22.92;;;2.20;99.90;;;;;;5040577;28;20112;-73
2022/12/02 11:25:51;;;;;;;55.83;25.33;;;2.30;99.90;;;;;;5022497;28;20473;-74
2022/12/02 11:28:16;;;;;;;51.90;23.25;;;2.30;99.90;;;;;;5016715;28;20072;-74
2022/12/02 11:30:46;;;;;;;54.28;23.35;;;2.80;99.90;;;;;;5017238;28;20436;-74
2022/12/02 11:33:33;;;;;;;49.80;22.67;;;2.30;99.90;;;;;;5038008;28;20091;-75
2022/12/02 11:36:08;;;;;;;54.75;23.30;;;2.30;99.90;;;;;;5005637;28;20138;-74
2022/12/02 11:38:47;;;;;;;53.08;23.42;;;2.30;99.90;;;;;;5017426;28;20084;-74
2022/12/02 11:41:14;;;;;;;56.05;24.35;;;2.30;99.90;;;;;;5018980;28;20105;-75
2022/12/02 11:43:46;;;;;;;51.08;23.55;;;2.60;99.90;;;;;;5016794;28;20041;-73
2022/12/02 11:46:37;;;;;;;57.20;24.30;;;2.40;99.90;;;;;;5008620;28;20522;-74
2022/12/02 11:49:28;;;;;;;61.75;25.55;;;2.40;99.90;;;;;;4991824;28;20045;-73
2022/12/02 11:52:08;;;;;;;58.13;25.52;;;2.40;99.90;;;;;;4995223;28;20046;-73
2022/12/02 11:54:45;;;;;;;57.53;26.45;;;2.40;99.90;;;;;;5010220;28;20050;-73
2022/12/02 11:57:22;;;;;;;60.92;28.98;;;2.40;99.90;;;;;;5020211;28;20041;-73
2022/12/02 11:59:48;;;;;;;58.63;27.20;;;2.40;99.90;;;;;;5015991;28;20845;-74
2022/12/02 12:02:19;;;;;;;62.70;28.23;;;2.40;99.90;;;;;;5015705;28;20045;-74
2022/12/02 12:04:56;;;;;;;62.33;27.90;;;2.40;99.90;;;;;;4999957;28;20370;-75
2022/12/02 12:07:22;;;;;;;64.10;27.65;;;2.40;99.90;;;;;;4998640;28;20103;-74
2022/12/02 12:09:58;;;;;;;65.78;30.60;;;2.50;99.90;;;;;;5011491;28;20442;-70
2022/12/02 12:12:24;;;;;;;60.08;29.40;;;2.50;99.90;;;;;;5012497;28;20037;-70
2022/12/02 12:15:03;;;;;;;60.78;27.05;;;2.50;99.90;;;;;;5013355;28;20525;-71
2022/12/02 12:17:38;;;;;;;63.28;28.92;;;2.50;99.90;;;;;;4994740;28;20050;-71
2022/12/02 12:20:24;;;;;;;58.70;28.42;;;2.50;99.90;;;;;;5014019;28;20064;-71
2022/12/02 12:22:49;;;;;;;57.00;27.70;;;2.70;99.90;;;;;;4996576;28;20468;-71
2022/12/02 12:25:41;;;;;;;60.58;28.65;;;2.50;99.90;;;;;;5017172;28;20050;-71
2022/12/02 12:28:24;;;;;;;57.83;27.70;;;2.50;99.90;;;;;;5017358;28;20057;-71
2022/12/02 12:30:49;;;;;;;54.75;27.05;;;2.50;99.90;;;;;;5016735;28;20053;-71
2022/12/02 12:33:15;;;;;;;52.03;26.55;;;2.50;99.90;;;;;;5015032;28;20214;-72
2022/12/02 12:35:41;;;;;;;54.67;27.05;;;2.50;99.90;;;;;;5001077;28;20045;-72
2022/12/02 12:38:07;;;;;;;54.17;28.23;;;3.50;99.90;;;;;;5014393;28;21056;-72
2022/12/02 12:40:32;;;;;;;52.85;26.45;;;2.50;99.90;;;;;;5016047;28;20799;-69
2022/12/02 12:42:58;;;;;;;52.58;26.00;;;2.50;99.90;;;;;;5013006;28;20048;-70
2022/12/02 12:45:24;;;;;;;50.72;25.30;;;2.50;99.90;;;;;;5015966;28;20454;-71
2022/12/02 12:47:50;;;;;;;49.33;25.33;;;2.90;99.90;;;;;;5023797;28;20053;-71